createdAt,value
2023-02-05T00:01:24.043Z,13.40
2023-02-05T00:03:50.862Z,13.20
2023-02-05T00:06:17.477Z,12.73
2023-02-05T00:08:44.108Z,12.07
2023-02-05T00:11:10.650Z,12.33
2023-02-05T00:13:39.149Z,12.27
2023-02-05T00:16:10.390Z,14.47
2023-02-05T00:18:37.495Z,12.63
2023-02-05T00:21:05.235Z,13.40
2023-02-05T00:23:32.686Z,12.97
2023-02-05T00:25:59.290Z,11.43
2023-02-05T00:28:25.981Z,12.33
2023-02-05T00:30:52.648Z,14.37
2023-02-05T00:33:19.315Z,14.13
2023-02-05T00:35:45.921Z,14.90
2023-02-05T00:38:12.675Z,15.43
2023-02-05T00:40:39.213Z,14.00
2023-02-05T00:43:05.808Z,15.00
2023-02-05T00:45:35.691Z,13.10
2023-02-05T00:48:04.297Z,14.70
2023-02-05T00:50:31.613Z,13.57
2023-02-05T00:52:58.268Z,13.50
2023-02-05T00:55:24.886Z,13.70
2023-02-05T00:57:51.498Z,12.40
2023-02-05T01:00:18.865Z,11.67
2023-02-05T01:02:45.538Z,12.80
2023-02-05T01:05:12.486Z,12.90
2023-02-05T01:07:39.090Z,13.67
2023-02-05T01:10:06.285Z,13.80
2023-02-05T01:12:33.247Z,13.13
2023-02-05T01:15:01.216Z,12.40
2023-02-05T01:17:27.775Z,13.57
2023-02-05T01:19:54.464Z,13.03
2023-02-05T01:22:21.203Z,13.10
2023-02-05T01:24:47.751Z,12.97
2023-02-05T01:27:14.346Z,12.43
2023-02-05T01:29:40.970Z,12.67
2023-02-05T01:32:07.870Z,12.50
2023-02-05T01:34:34.523Z,11.57
2023-02-05T01:37:01.101Z,13.17
2023-02-05T01:39:27.674Z,12.67
2023-02-05T01:41:54.278Z,12.33
2023-02-05T01:44:24.428Z,12.90
2023-02-05T01:46:56.889Z,12.47
2023-02-05T01:49:39.151Z,12.43
2023-02-05T01:52:11.076Z,12.23
2023-02-05T01:54:41.548Z,12.03
2023-02-05T01:57:14.274Z,12.37
2023-02-05T01:59:43.345Z,12.17
2023-02-05T02:02:10.113Z,12.27
2023-02-05T02:04:46.116Z,11.80
2023-02-05T02:07:16.519Z,13.37
2023-02-05T02:09:45.741Z,12.10
2023-02-05T02:12:19.116Z,12.67
2023-02-05T02:14:50.088Z,11.37
2023-02-05T02:17:18.178Z,11.83
2023-02-05T02:19:55.137Z,13.33
2023-02-05T02:22:53.512Z,12.27
2023-02-05T02:25:41.539Z,12.80
2023-02-05T02:28:26.973Z,12.63
2023-02-05T02:31:34.949Z,12.90
2023-02-05T02:34:14.995Z,13.40
2023-02-05T02:36:51.640Z,13.17
2023-02-05T02:39:26.743Z,12.83
2023-02-05T02:41:57.459Z,12.20
2023-02-05T02:44:32.896Z,12.33
2023-02-05T02:47:05.729Z,13.37
2023-02-05T02:49:40.349Z,12.10
2023-02-05T02:52:10.923Z,12.83
2023-02-05T02:54:41.151Z,12.40
2023-02-05T02:57:10.415Z,12.20
2023-02-05T02:59:39.153Z,13.07
2023-02-05T03:02:09.744Z,12.33
2023-02-05T03:04:46.981Z,12.80
2023-02-05T03:07:28.524Z,12.47
2023-02-05T03:10:03.399Z,12.90
2023-02-05T03:12:30.620Z,12.53
2023-02-05T03:14:57.698Z,13.43
2023-02-05T03:17:25.363Z,14.87
2023-02-05T03:20:17.307Z,12.70
2023-02-05T03:22:43.889Z,13.23
2023-02-05T03:25:11.189Z,12.80
2023-02-05T03:27:38.335Z,12.30
2023-02-05T03:30:06.985Z,12.50
2023-02-05T03:32:42.949Z,13.03
2023-02-05T03:35:27.995Z,12.83
2023-02-05T03:38:03.029Z,13.10
2023-02-05T03:40:41.031Z,12.47
2023-02-05T03:43:13.588Z,12.87
2023-02-05T03:46:00.733Z,11.43
2023-02-05T03:48:52.335Z,13.10
2023-02-05T03:51:44.124Z,14.10
2023-02-05T03:54:20.414Z,12.47
2023-02-05T03:57:08.657Z,13.10
2023-02-05T03:59:36.936Z,12.87
2023-02-05T04:02:04.780Z,14.17
2023-02-05T04:04:31.560Z,13.03
2023-02-05T04:06:58.157Z,11.90
2023-02-05T04:09:24.724Z,11.03
2023-02-05T04:11:51.284Z,12.00
2023-02-05T04:14:17.833Z,11.80
2023-02-05T04:16:44.414Z,12.80
2023-02-05T04:19:10.971Z,11.90
2023-02-05T04:21:37.542Z,12.53
2023-02-05T04:24:04.342Z,13.43
2023-02-05T04:26:30.956Z,13.03
2023-02-05T04:28:57.538Z,12.67
2023-02-05T04:31:24.189Z,15.40
2023-02-05T04:33:50.767Z,13.07
2023-02-05T04:36:17.329Z,14.43
2023-02-05T04:38:43.880Z,13.00
2023-02-05T04:41:10.486Z,13.83
2023-02-05T04:43:37.145Z,15.23
2023-02-05T04:46:10.824Z,14.20
2023-02-05T04:48:37.957Z,14.40
2023-02-05T04:51:13.026Z,14.00
2023-02-05T04:53:40.290Z,15.20
2023-02-05T04:56:09.247Z,15.50
2023-02-05T04:58:36.144Z,14.80
2023-02-05T05:01:02.878Z,15.27
2023-02-05T05:03:29.547Z,15.00
2023-02-05T05:05:56.610Z,15.30
2023-02-05T05:08:23.320Z,15.80
2023-02-05T05:10:50.270Z,15.97
2023-02-05T05:13:16.878Z,16.33
2023-02-05T05:15:43.472Z,14.90
2023-02-05T05:18:10.101Z,15.07
2023-02-05T05:20:36.714Z,15.57
2023-02-05T05:23:03.276Z,16.07
2023-02-05T05:25:29.821Z,16.20
2023-02-05T05:27:56.475Z,16.00
2023-02-05T05:30:23.023Z,14.67
2023-02-05T05:32:49.656Z,15.60
2023-02-05T05:35:16.233Z,16.20
2023-02-05T05:37:42.792Z,16.93
2023-02-05T05:40:30.376Z,16.20
2023-02-05T05:43:15.712Z,18.00
2023-02-05T05:45:42.342Z,16.90
2023-02-05T05:48:09.169Z,17.60
2023-02-05T05:50:35.921Z,18.17
2023-02-05T05:53:02.498Z,17.73
2023-02-05T05:55:29.042Z,18.27
2023-02-05T05:57:55.606Z,17.60
2023-02-05T06:00:22.348Z,17.53
2023-02-05T06:02:48.942Z,18.70
2023-02-05T06:05:15.621Z,19.60
2023-02-05T06:07:42.317Z,17.93
2023-02-05T06:10:09.109Z,18.50
2023-02-05T06:12:35.652Z,20.17
2023-02-05T06:15:02.186Z,19.77
2023-02-05T06:17:28.921Z,18.20
2023-02-05T06:19:55.450Z,18.77
2023-02-05T06:22:22.087Z,20.53
2023-02-05T06:24:48.639Z,18.80
2023-02-05T06:27:15.276Z,20.33
2023-02-05T06:29:41.822Z,20.20
2023-02-05T06:32:08.652Z,20.50
2023-02-05T06:34:35.226Z,20.47
2023-02-05T06:37:01.816Z,19.87
2023-02-05T06:39:28.384Z,19.90
2023-02-05T06:41:54.945Z,19.90
2023-02-05T06:44:21.573Z,21.40
2023-02-05T06:46:48.115Z,21.80
2023-02-05T06:49:14.662Z,20.97
2023-02-05T06:51:41.225Z,21.63
2023-02-05T06:54:07.853Z,21.00
2023-02-05T06:56:34.465Z,21.23
2023-02-05T06:59:01.067Z,20.23
2023-02-05T07:01:27.714Z,23.00
2023-02-05T07:03:56.075Z,20.83
2023-02-05T07:06:26.048Z,21.90
2023-02-05T07:08:53.693Z,22.90
2023-02-05T07:11:21.078Z,21.43
2023-02-05T07:13:47.774Z,20.50
2023-02-05T07:16:15.059Z,20.47
2023-02-05T07:18:41.608Z,21.10
2023-02-05T07:21:09.865Z,20.60
2023-02-05T07:23:36.887Z,20.77
2023-02-05T07:26:14.871Z,19.37
2023-02-05T07:28:42.065Z,18.17
2023-02-05T07:31:11.674Z,16.93
2023-02-05T07:33:38.376Z,19.30
2023-02-05T07:36:06.714Z,17.77
2023-02-05T07:38:34.658Z,18.67
2023-02-05T07:41:09.014Z,17.80
2023-02-05T07:43:35.844Z,17.30
2023-02-05T07:46:04.974Z,16.07
2023-02-05T07:48:31.871Z,16.60
2023-02-05T07:50:58.456Z,15.37
2023-02-05T07:53:25.422Z,16.40
2023-02-05T07:55:52.208Z,15.40
2023-02-05T07:58:19.287Z,15.80
2023-02-05T08:00:45.910Z,15.07
2023-02-05T08:03:12.973Z,15.70
2023-02-05T08:05:40.180Z,16.57
2023-02-05T08:08:07.367Z,15.60
2023-02-05T08:10:34.427Z,14.73
2023-02-05T08:13:00.956Z,13.53
2023-02-05T08:15:28.134Z,12.30
2023-02-05T08:17:54.676Z,13.00
2023-02-05T08:20:22.173Z,12.40
2023-02-05T08:22:48.744Z,9.87
2023-02-05T08:25:15.875Z,9.27
2023-02-05T08:27:42.969Z,6.80
2023-02-05T08:30:14.149Z,5.90
2023-02-05T08:32:40.865Z,5.07
2023-02-05T08:35:07.899Z,4.10
2023-02-05T08:37:34.461Z,4.20
2023-02-05T08:40:01.011Z,3.13
2023-02-05T08:42:27.536Z,2.70
2023-02-05T08:44:58.231Z,2.47
2023-02-05T08:47:25.533Z,2.30
2023-02-05T08:49:52.324Z,1.40
2023-02-05T08:52:18.898Z,1.10
2023-02-05T08:54:45.544Z,1.13
2023-02-05T08:57:12.112Z,1.00
2023-02-05T08:59:38.681Z,1.47
2023-02-05T09:02:05.290Z,1.20
2023-02-05T09:04:31.881Z,1.40
2023-02-05T09:06:58.421Z,0.70
2023-02-05T09:09:25.000Z,0.70
2023-02-05T09:11:51.594Z,1.37
2023-02-05T09:14:18.140Z,0.90
2023-02-05T09:16:44.788Z,0.90
2023-02-05T09:19:11.423Z,0.60
2023-02-05T09:21:37.985Z,0.90
2023-02-05T09:24:04.885Z,0.73
2023-02-05T09:26:31.463Z,0.60
2023-02-05T09:28:58.291Z,0.80
2023-02-05T09:31:25.184Z,0.60
2023-02-05T09:33:51.812Z,1.00
2023-02-05T09:36:23.294Z,0.87
2023-02-05T09:39:01.921Z,0.60
2023-02-05T09:42:04.776Z,0.50
2023-02-05T09:44:49.079Z,0.80
2023-02-05T09:47:38.577Z,0.60
2023-02-05T09:50:12.924Z,0.50
2023-02-05T09:52:44.848Z,0.50
2023-02-05T09:55:20.543Z,0.67
2023-02-05T09:57:47.349Z,0.93
2023-02-05T10:00:28.232Z,0.63
2023-02-05T10:03:18.258Z,0.73
2023-02-05T10:06:11.079Z,0.70
2023-02-05T10:09:04.843Z,0.70
2023-02-05T10:11:42.149Z,0.67
2023-02-05T10:14:20.608Z,0.90
2023-02-05T10:17:04.380Z,0.80
2023-02-05T10:19:42.417Z,1.00
2023-02-05T10:22:36.350Z,1.13
2023-02-05T10:25:58.346Z,0.70
2023-02-05T10:28:43.339Z,0.97
2023-02-05T10:31:37.684Z,1.20
2023-02-05T10:34:19.140Z,1.00
2023-02-05T10:36:52.034Z,0.80
2023-02-05T10:39:21.306Z,0.80
2023-02-05T10:41:56.538Z,0.90
2023-02-05T10:44:31.269Z,1.60
2023-02-05T10:47:06.327Z,1.00
2023-02-05T10:49:47.881Z,1.13
2023-02-05T10:52:16.099Z,1.47
2023-02-05T10:54:43.277Z,1.20
2023-02-05T10:57:15.184Z,1.07
2023-02-05T10:59:50.867Z,1.20
2023-02-05T11:02:17.668Z,1.07
2023-02-05T11:04:55.458Z,0.93
2023-02-05T11:07:46.446Z,0.80
2023-02-05T11:10:34.782Z,0.60
2023-02-05T11:13:21.349Z,0.97
2023-02-05T11:16:08.779Z,0.77
2023-02-05T11:18:45.412Z,0.80
2023-02-05T11:21:12.300Z,1.13
2023-02-05T11:23:40.306Z,0.63
2023-02-05T11:26:33.088Z,0.70
2023-02-05T11:28:59.632Z,0.77
2023-02-05T11:31:29.047Z,1.00
2023-02-05T11:34:11.445Z,1.20
2023-02-05T11:36:47.432Z,0.80
2023-02-05T11:39:35.780Z,0.90
2023-02-05T11:42:19.722Z,1.10
2023-02-05T11:44:59.962Z,1.27
2023-02-05T11:47:36.851Z,2.00
2023-02-05T11:50:05.711Z,2.67
2023-02-05T11:52:37.259Z,3.20
2023-02-05T11:55:05.083Z,2.90
2023-02-05T11:57:35.274Z,2.10
2023-02-05T12:00:21.137Z,2.33
2023-02-05T12:02:53.694Z,2.40
2023-02-05T12:05:26.322Z,2.43
2023-02-05T12:08:09.260Z,1.70
2023-02-05T12:10:45.961Z,1.90
2023-02-05T12:13:27.645Z,2.10
2023-02-05T12:16:18.971Z,2.40
2023-02-05T12:19:14.598Z,2.43
2023-02-05T12:21:50.657Z,3.37
2023-02-05T12:24:49.801Z,2.43
2023-02-05T12:27:38.194Z,2.57
2023-02-05T12:30:21.769Z,2.70
2023-02-05T12:33:04.363Z,2.70
2023-02-05T12:35:52.325Z,2.60
2023-02-05T12:38:40.346Z,3.10
2023-02-05T12:41:27.745Z,3.43
2023-02-05T12:44:05.603Z,3.43
2023-02-05T12:46:42.391Z,3.20
2023-02-05T12:49:44.699Z,3.53
2023-02-05T12:52:33.378Z,3.50
2023-02-05T12:55:15.061Z,2.50
2023-02-05T12:57:52.239Z,3.50
2023-02-05T13:00:28.297Z,3.20
2023-02-05T13:03:19.462Z,2.93
2023-02-05T13:06:12.145Z,4.50
2023-02-05T13:08:44.202Z,3.67
2023-02-05T13:11:30.716Z,2.47
2023-02-05T13:14:28.017Z,3.67
2023-02-05T13:17:01.460Z,3.10
2023-02-05T13:19:30.764Z,2.80
2023-02-05T13:22:19.585Z,3.80
2023-02-05T13:25:11.334Z,3.97
2023-02-05T13:28:02.121Z,3.40
2023-02-05T13:30:36.674Z,3.83
2023-02-05T13:33:06.764Z,5.20
2023-02-05T13:35:56.135Z,2.70
2023-02-05T13:38:57.060Z,3.00
2023-02-05T13:42:19.927Z,3.10
2023-02-05T13:45:19.168Z,3.07
2023-02-05T13:48:00.627Z,2.57
2023-02-05T13:50:39.088Z,2.10
2023-02-05T13:53:11.843Z,2.40
2023-02-05T13:56:15.879Z,1.83
2023-02-05T13:58:51.244Z,2.17
2023-02-05T14:01:29.456Z,1.77
2023-02-05T14:04:00.440Z,1.50
2023-02-05T14:06:29.474Z,1.60
2023-02-05T14:09:00.484Z,1.70
2023-02-05T14:11:27.859Z,2.13
2023-02-05T14:14:15.987Z,1.20
2023-02-05T14:16:42.956Z,1.20
2023-02-05T14:19:32.432Z,0.83
2023-02-05T14:22:07.247Z,1.30
2023-02-05T14:24:48.622Z,1.43
2023-02-05T14:27:46.865Z,1.20
2023-02-05T14:30:44.521Z,1.93
2023-02-05T14:33:43.846Z,1.50
2023-02-05T14:36:22.843Z,1.20
2023-02-05T14:38:55.570Z,2.50
2023-02-05T14:41:27.796Z,1.43
2023-02-05T14:44:31.508Z,1.77
2023-02-05T14:47:00.871Z,1.77
2023-02-05T14:49:37.757Z,1.10
2023-02-05T14:52:16.067Z,1.53
2023-02-05T14:54:48.074Z,1.37
2023-02-05T14:57:14.607Z,1.60
2023-02-05T14:59:45.415Z,2.30
2023-02-05T15:02:49.559Z,2.10
2023-02-05T15:05:29.698Z,1.37
2023-02-05T15:08:16.851Z,1.80
2023-02-05T15:11:14.283Z,1.30
2023-02-05T15:13:41.098Z,2.53
2023-02-05T15:16:16.550Z,1.70
2023-02-05T15:18:49.882Z,1.80
2023-02-05T15:21:26.359Z,2.00
2023-02-05T15:24:14.629Z,2.00
2023-02-05T15:26:56.831Z,2.37
2023-02-05T15:29:44.482Z,1.10
2023-02-05T15:32:37.239Z,2.70
2023-02-05T15:35:14.023Z,1.73
2023-02-05T15:37:51.134Z,1.57
2023-02-05T15:40:43.879Z,2.10
2023-02-05T15:43:22.701Z,2.10
2023-02-05T15:45:53.137Z,2.13
2023-02-05T15:48:25.686Z,2.97
2023-02-05T15:51:00.021Z,1.67
2023-02-05T15:53:45.967Z,4.23
2023-02-05T15:56:29.342Z,3.50
2023-02-05T15:59:03.942Z,2.80
2023-02-05T16:01:47.842Z,2.73
2023-02-05T16:04:27.421Z,2.30
2023-02-05T16:06:53.999Z,2.00
2023-02-05T16:09:23.322Z,4.63
2023-02-05T16:11:50.781Z,2.70
2023-02-05T16:14:22.355Z,2.10
2023-02-05T16:17:03.781Z,3.40
2023-02-05T16:19:37.076Z,2.60
2023-02-05T16:22:30.325Z,4.13
2023-02-05T16:25:01.269Z,2.67
2023-02-05T16:27:40.045Z,2.63
2023-02-05T16:30:23.247Z,3.23
2023-02-05T16:32:54.138Z,2.93
2023-02-05T16:35:28.130Z,3.00
2023-02-05T16:37:55.441Z,2.17
2023-02-05T16:40:35.569Z,3.23
2023-02-05T16:43:27.029Z,3.17
2023-02-05T16:46:08.876Z,2.73
2023-02-05T16:48:41.533Z,2.77
2023-02-05T16:51:26.748Z,3.23
2023-02-05T16:53:53.355Z,2.73
2023-02-05T16:56:32.912Z,3.20
2023-02-05T16:59:01.748Z,2.80
2023-02-05T17:01:37.801Z,1.50
2023-02-05T17:04:04.855Z,2.50
2023-02-05T17:06:37.350Z,2.13
2023-02-05T17:09:05.504Z,4.00
2023-02-05T17:11:39.201Z,2.33
2023-02-05T17:14:29.294Z,2.50
2023-02-05T17:17:15.414Z,3.00
2023-02-05T17:19:42.040Z,2.23
2023-02-05T17:22:14.270Z,2.17
2023-02-05T17:24:42.198Z,3.40
2023-02-05T17:27:15.879Z,2.17
2023-02-05T17:29:42.851Z,2.30
2023-02-05T17:32:17.643Z,2.50
2023-02-05T17:34:45.467Z,4.40
2023-02-05T17:37:12.594Z,4.20
2023-02-05T17:39:39.240Z,2.70
2023-02-05T17:42:16.437Z,4.40
2023-02-05T17:44:43.019Z,4.13
2023-02-05T17:47:12.916Z,3.13
2023-02-05T17:49:39.493Z,4.07
2023-02-05T17:52:06.077Z,2.67
2023-02-05T17:54:32.615Z,2.80
2023-02-05T17:57:16.002Z,3.40
2023-02-05T17:59:44.641Z,2.90
2023-02-05T18:02:12.748Z,2.40
2023-02-05T18:04:40.057Z,2.77
2023-02-05T18:07:20.364Z,2.93
2023-02-05T18:09:46.928Z,2.50
2023-02-05T18:12:13.488Z,2.80
2023-02-05T18:14:40.108Z,2.63
2023-02-05T18:17:06.718Z,2.90
2023-02-05T18:19:34.651Z,2.93
2023-02-05T18:22:01.778Z,2.80
2023-02-05T18:24:29.024Z,3.43
2023-02-05T18:26:56.877Z,3.33
2023-02-05T18:29:23.533Z,3.27
2023-02-05T18:31:50.134Z,3.13
2023-02-05T18:34:16.801Z,2.70
2023-02-05T18:36:43.421Z,2.87
2023-02-05T18:39:10.299Z,2.13
2023-02-05T18:41:38.081Z,2.60
2023-02-05T18:44:05.073Z,2.57
2023-02-05T18:46:31.777Z,4.00
2023-02-05T18:48:58.385Z,2.40
2023-02-05T18:51:24.939Z,1.40
2023-02-05T18:53:52.916Z,2.63
2023-02-05T18:56:25.642Z,2.47
2023-02-05T18:59:03.009Z,2.73
2023-02-05T19:01:30.874Z,2.50
2023-02-05T19:04:02.227Z,2.10
2023-02-05T19:06:28.882Z,2.80
2023-02-05T19:08:57.424Z,2.80
2023-02-05T19:11:25.690Z,2.93
2023-02-05T19:14:02.566Z,4.07
2023-02-05T19:16:31.377Z,4.77
2023-02-05T19:18:58.538Z,4.60
2023-02-05T19:21:28.917Z,3.47
2023-02-05T19:23:57.311Z,4.00
2023-02-05T19:26:27.662Z,2.43
2023-02-05T19:29:04.543Z,4.13
2023-02-05T19:31:34.115Z,3.40
2023-02-05T19:34:01.532Z,3.17
2023-02-05T19:36:28.778Z,2.90
2023-02-05T19:38:55.900Z,4.57
2023-02-05T19:41:26.404Z,3.80
2023-02-05T19:43:55.520Z,3.17
2023-02-05T19:46:25.169Z,3.57
2023-02-05T19:48:53.169Z,4.53
2023-02-05T19:51:20.246Z,4.20
2023-02-05T19:53:47.410Z,5.83
2023-02-05T19:56:22.267Z,5.43
2023-02-05T19:58:51.450Z,4.77
2023-02-05T20:01:26.786Z,3.37
2023-02-05T20:04:10.910Z,2.90
2023-02-05T20:06:38.376Z,3.23
2023-02-05T20:09:10.210Z,2.83
2023-02-05T20:11:38.721Z,3.20
2023-02-05T20:14:05.972Z,2.90
2023-02-05T20:16:33.345Z,3.40
2023-02-05T20:19:00.418Z,3.60
2023-02-05T20:21:28.965Z,5.40
2023-02-05T20:23:56.393Z,3.30
2023-02-05T20:26:24.278Z,3.13
2023-02-05T20:29:12.233Z,2.60
2023-02-05T20:31:42.753Z,2.20
2023-02-05T20:34:21.801Z,3.10
2023-02-05T20:36:51.861Z,3.00
2023-02-05T20:39:20.172Z,2.53
2023-02-05T20:41:49.666Z,3.57
2023-02-05T20:44:17.233Z,2.43
2023-02-05T20:46:44.374Z,3.30
2023-02-05T20:49:11.294Z,3.50
2023-02-05T20:51:38.216Z,2.90
2023-02-05T20:54:04.944Z,2.83
2023-02-05T20:56:32.739Z,4.93
2023-02-05T20:59:01.712Z,3.37
2023-02-05T21:01:30.464Z,3.63
2023-02-05T21:04:00.299Z,4.43
2023-02-05T21:06:29.110Z,3.40
2023-02-05T21:08:56.552Z,2.97
2023-02-05T21:11:24.196Z,2.90
2023-02-05T21:13:51.817Z,3.70
2023-02-05T21:16:21.473Z,4.80
2023-02-05T21:18:49.360Z,3.10
2023-02-05T21:21:24.679Z,3.20
2023-02-05T21:23:59.411Z,4.97
2023-02-05T21:26:31.710Z,2.93
2023-02-05T21:29:00.843Z,3.20
2023-02-05T21:31:33.727Z,2.90
2023-02-05T21:34:05.014Z,2.57
2023-02-05T21:36:31.864Z,3.33
2023-02-05T21:38:58.870Z,2.63
2023-02-05T21:41:25.736Z,2.83
2023-02-05T21:43:54.855Z,2.90
2023-02-05T21:46:22.579Z,3.27
2023-02-05T21:48:50.852Z,2.73
2023-02-05T21:51:20.001Z,3.30
2023-02-05T21:53:46.687Z,3.27
2023-02-05T21:56:16.628Z,3.43
2023-02-05T21:58:43.711Z,2.57
2023-02-05T22:01:16.002Z,3.60
2023-02-05T22:03:47.040Z,4.03
2023-02-05T22:06:13.599Z,3.03
2023-02-05T22:08:41.088Z,3.90
2023-02-05T22:11:10.847Z,3.50
2023-02-05T22:13:39.972Z,3.70
2023-02-05T22:16:09.659Z,4.30
2023-02-05T22:18:37.035Z,5.27
2023-02-05T22:21:14.590Z,4.43
2023-02-05T22:23:43.168Z,4.20
2023-02-05T22:26:10.281Z,4.10
2023-02-05T22:28:37.078Z,4.07
2023-02-05T22:31:04.968Z,4.80
2023-02-05T22:33:32.692Z,4.37
2023-02-05T22:35:59.759Z,3.93
2023-02-05T22:38:27.278Z,6.23
2023-02-05T22:40:53.870Z,4.30
2023-02-05T22:43:20.460Z,4.40
2023-02-05T22:45:47.223Z,4.40
2023-02-05T22:48:13.808Z,5.00
2023-02-05T22:50:41.782Z,4.17
2023-02-05T22:53:09.627Z,3.63
2023-02-05T22:55:37.878Z,3.43
2023-02-05T22:58:05.535Z,4.80
2023-02-05T23:00:33.034Z,3.40
2023-02-05T23:03:00.877Z,3.67
2023-02-05T23:05:31.312Z,3.93
2023-02-05T23:07:57.895Z,4.03
2023-02-05T23:10:24.539Z,3.77
2023-02-05T23:12:51.164Z,4.07
2023-02-05T23:15:17.900Z,3.60
2023-02-05T23:17:44.449Z,3.23
2023-02-05T23:20:11.650Z,3.60
2023-02-05T23:22:38.205Z,4.50
2023-02-05T23:25:05.515Z,4.10
2023-02-05T23:27:32.789Z,4.07
2023-02-05T23:29:59.883Z,4.23
2023-02-05T23:32:26.471Z,4.87
2023-02-05T23:34:53.017Z,4.83
2023-02-05T23:37:19.579Z,4.20
2023-02-05T23:39:46.119Z,4.93
2023-02-05T23:42:12.801Z,4.53
2023-02-05T23:44:39.403Z,5.23
2023-02-05T23:47:06.005Z,7.63
2023-02-05T23:49:32.567Z,7.13
2023-02-05T23:51:59.260Z,9.10
2023-02-05T23:54:25.855Z,6.50
2023-02-05T23:56:52.679Z,6.70
2023-02-05T23:59:19.285Z,7.40
